This is the latest recevied weather packets stored in our database for station/object RU2DX-10. If no packets are shown the sender has not sent any weather packets the latest 1 day(s).
| Time | Temp. | Humidity | Pressure | Rain* | Wind** | Luminosity | Snow |
|---|---|---|---|---|---|---|---|
| 1778050274 | 22.78° C | 49% | 1006.8 hPa | - | - | - | - |
| 1778049374 | 22.22° C | 50% | 1006.8 hPa | - | - | - | - |
| 1778048474 | 22.22° C | 50% | 1006.7 hPa | - | - | - | - |
| 1778047573 | 22.22° C | 51% | 1006.9 hPa | - | - | - | - |
| 1778046673 | 21.67° C | 51% | 1006.9 hPa | - | - | - | - |
| 1778045771 | 21.11° C | 52% | 1006.4 hPa | - | - | - | - |
| 1778044870 | 21.11° C | 54% | 1006.4 hPa | - | - | - | - |
| 1778043969 | 20° C | 57% | 1006.5 hPa | - | - | - | - |
| 1778043068 | 20° C | 57% | 1006.5 hPa | - | - | - | - |
| 1778042168 | 19.44° C | 61% | 1006.6 hPa | - | - | - | - |
| 1778039466 | 17.78° C | 72% | 1006.4 hPa | - | - | - | - |
| 1778038564 | 16.11° C | 91% | 1006.4 hPa | - | - | - | - |
| 1778037663 | 13.89° C | 100% | 1006.3 hPa | - | - | - | - |
| 1778034961 | 15.56° C | 84% | 1005.8 hPa | - | - | - | - |
| 1778033160 | 14.44° C | 87% | 1005.6 hPa | - | - | - | - |
| 1778032259 | 14.44° C | 88% | 1005.6 hPa | - | - | - | - |
| 1778031358 | 15° C | 84% | 1005.5 hPa | - | - | - | - |
| 1778030457 | 15° C | 82% | 1005.6 hPa | - | - | - | - |
| 1778029557 | 15° C | 83% | 1005.6 hPa | - | - | - | - |
| 1778028656 | 15° C | 86% | 1005.8 hPa | - | - | - | - |
| 1778027755 | 15.56° C | 79% | 1005.9 hPa | - | - | - | - |
| 1778026854 | 15.56° C | 73% | 1005.7 hPa | - | - | - | - |
| 1778025953 | 14.44° C | 93% | 1005.9 hPa | - | - | - | - |
| 1778025053 | 11.67° C | 100% | 1006.3 hPa | - | - | - | - |
| 1778018747 | 17.78° C | 49% | 1006.1 hPa | - | - | - | - |
* Rain since midnight (hover to see other rain measurements)
** Current wind speed in m/s (hover to see current wind gust speed)